• Join FlightAware (Why Join?)
  • Login
  • US Flag 
04:07AM EDT


 

Airport Tracker/Info


-or-


 

Live Flight TrackerFlight Track Log ✈ UAL654 ✈ 10-Jun-2013 ✈ KORD - KMCO

Flight Track Log - Related Links

Times and Time Zones

All times are in EDT time to prevent confusion due to time zone crossing. See the UAL654 flight status page for this flight to view local times or setup timezone preferences in your user account.

Time Position Orientation Groundspeed Altitude Reporting Facility
EDT Latitude Longitude Course Direction KTS MPH feet Rate Location/Type
07:22AM 41.9167 -87.8833 180° South 161 185 3,000  Level Chicago TRACON
07:23AM 41.8667 -87.8667 166° South 205 236 4,600 1,560 Climbing Chicago TRACON
07:23AM 41.8192 -87.8550 170° South 241 277 5,600 2,400 Climbing Chicago Center
07:24AM 41.6604 -87.7182 164° South  Level Estimated
07:24AM 41.7442 -87.8297 166° South 271 312 8,700  Level Chicago Center
07:25AM 41.5533 -87.6558 167° South  Level Estimated
07:25AM 41.6647 -87.8039 166° South 289 333 11,600  Level Chicago Center
07:26AM 41.4461 -87.5936 180° South  Level Estimated
07:27AM 41.3389 -87.5316 180° South  Level Estimated
07:27AM 41.5853 -87.7397 149° Southeast 333 383 13,100  Level Chicago Center
07:28AM 41.4989 -87.6694 149° Southeast 356 410 15,500 2,160 Climbing Chicago Center
07:29AM 41.4033 -87.6144 157° South 366 421 17,500 1,980 Climbing Chicago Center
07:30AM 41.2983 -87.5831 167° South 379 436 19,600 2,100 Climbing Chicago Center
07:31AM 41.1703 -87.5367 165° South 394 453 21,900 1,860 Climbing Chicago Center
07:32AM 41.0614 -87.4975 165° South 402 463 23,500 1,500 Climbing Chicago Center
07:33AM 40.9489 -87.4589 165° South 413 475 25,000 1,500 Climbing Chicago Center
07:34AM 40.8342 -87.4189 165° South 426 490 26,600 1,440 Climbing Chicago Center
07:35AM 40.7206 -87.3806 166° South 426 490 28,000 1,860 Climbing Chicago Center
07:36AM 40.6100 -87.3425 165° South 414 476 30,500 1,680 Climbing Chicago Center
07:37AM 40.5033 -87.3056 165° South 401 461 31,500 1,020 Climbing Chicago Center
07:38AM 40.3833 -87.2644 165° South 407 468 32,600 1,020 Climbing Chicago Center
07:39AM 40.2742 -87.2269 165° South 408 470 33,600 900 Climbing Chicago Center
07:40AM 40.1636 -87.1883 165° South 411 473 34,500 720 Climbing Chicago Center
07:41AM 40.0742 -87.1586 166° South 412 474 35,000 240 Climbing Indianapolis Center
07:42AM 39.9678 -87.1203 165° South 401 461 35,000  Level Indianapolis Center
07:43AM 39.8447 -87.0469 155° Southeast 411 473 35,000  Level Indianapolis Center
07:44AM 39.7417 -86.9858 155° Southeast 411 473 35,000  Level Indianapolis Center
07:45AM 39.6392 -86.9231 155° Southeast 410 472 35,000  Level Indianapolis Center
07:46AM 39.5372 -86.8622 155° Southeast 409 471 35,000  Level Indianapolis Center
07:47AM 39.4325 -86.8003 155° Southeast 415 478 35,000  Level Indianapolis Center
07:48AM 39.3275 -86.7369 155° Southeast 419 482 35,000  Level Indianapolis Center
07:49AM 39.2017 -86.6617 155° Southeast 419 482 35,000  Level Indianapolis Center
07:50AM 39.1106 -86.6072 155° Southeast 417 480 35,000  Level Indianapolis Center
07:51AM 38.9906 -86.5372 156° South 421 484 35,000  Level Indianapolis Center
07:52AM 38.8742 -86.4675 155° Southeast 420 483 35,000  Level Indianapolis Center
07:53AM 38.7650 -86.4044 156° South 424 488 35,000  Level Indianapolis Center
07:54AM 38.6569 -86.3411 155° Southeast 423 487 35,000  Level Indianapolis Center
07:55AM 38.5489 -86.2775 155° Southeast 424 488 35,000  Level Indianapolis Center
07:56AM 38.4400 -86.2131 155° Southeast 425 489 35,000  Level Indianapolis Center
07:57AM 38.3317 -86.1508 156° South 424 488 35,000  Level Indianapolis Center
07:58AM 38.2242 -86.0886 156° South 421 484 35,000  Level Indianapolis Center
07:59AM 38.1147 -86.0253 156° South 426 490 35,000  Level Indianapolis Center
08:00AM 38.0072 -85.9639 156° South 423 487 35,000  Level Indianapolis Center
08:01AM 37.8986 -85.9025 156° South 423 487 35,000  Level Indianapolis Center
08:02AM 37.7917 -85.8411 156° South 420 483 35,000  Level Indianapolis Center
08:03AM 37.6853 -85.7817 156° South 417 480 35,000  Level Indianapolis Center
08:04AM 37.5772 -85.7219 156° South 418 481 35,000  Level Indianapolis Center
08:05AM 37.4511 -85.6489 155° Southeast 416 479 35,000  Level Indianapolis Center
08:06AM 37.3442 -85.5886 156° South 418 481 35,000  Level Indianapolis Center
08:07AM 37.2503 -85.5367 156° South 417 480 35,000  Level Indianapolis Center
08:08AM 37.1272 -85.4667 156° South 422 486 35,000  Level Indianapolis Center
08:09AM 37.0231 -85.4089 156° South 423 487 35,000  Level Indianapolis Center
08:10AM 36.9167 -85.3483 156° South 421 484 35,000  Level Indianapolis Center
08:11AM 36.8111 -85.2903 156° South 415 478 35,000  Level Indianapolis Center
08:12AM 36.7056 -85.2325 156° South 414 476 35,000  Level Indianapolis Center
08:13AM 36.5781 -85.1719 159° South 408 470 35,000  Level Indianapolis Center
08:14AM 36.4683 -85.1436 168° South 403 464 35,000  Level Indianapolis Center
08:15AM 36.3572 -85.1156 169° South 407 468 35,000  Level Indianapolis Center
08:17AM 36.2453 -85.0872 168° South 409 471 35,000  Level Indianapolis Center
08:18AM 36.1333 -85.0589 168° South 410 472 35,000  Level Indianapolis Center
08:19AM 36.0200 -85.0294 168° South 415 478 35,000  Level Indianapolis Center
08:20AM 35.9050 -84.9989 168° South 417 480 35,000  Level Indianapolis Center
08:20AM 35.8439 -84.9839 169° South 424 488 35,000  Level Atlanta Center
08:21AM 35.7272 -84.9597 170° South 436 502 35,000  Level Atlanta Center
08:22AM 35.6150 -84.9278 167° South 431 496 35,000  Level Atlanta Center
08:23AM 35.5025 -84.9011 169° South 426 490 35,000  Level Atlanta Center
08:24AM 35.3900 -84.8719 168° South 421 484 35,000  Level Atlanta Center
08:25AM 35.2733 -84.8428 168° South 421 484 35,000  Level Atlanta Center
08:26AM 35.1608 -84.8161 169° South 421 484 35,000  Level Atlanta Center
08:27AM 35.0483 -84.7847 167° South 416 479 35,000  Level Atlanta Center
08:28AM 34.9381 -84.7583 169° South 416 479 35,000  Level Atlanta Center
08:29AM 34.8253 -84.7294 168° South 416 479 35,000  Level Atlanta Center
08:30AM 34.7108 -84.7033 169° South 411 473 35,000  Level Atlanta Center
08:31AM 34.6003 -84.6722 167° South 411 473 35,000  Level Atlanta Center
08:32AM 34.4858 -84.6436 168° South 416 479 35,000  Level Atlanta Center
08:33AM 34.3711 -84.6150 168° South 421 484 35,000  Level Atlanta Center
08:34AM 34.2564 -84.5892 169° South 421 484 35,000  Level Atlanta Center
08:35AM 34.1417 -84.5608 168° South 426 490 35,000  Level Atlanta Center
08:36AM 34.0083 -84.5325 170° South 437 503 35,000  Level Atlanta Center
08:37AM 33.8978 -84.4992 166° South 426 490 35,000  Level Atlanta Center
08:38AM 33.7789 -84.4736 170° South 431 496 35,000  Level Atlanta Center
08:39AM 33.6578 -84.4431 168° South 431 496 35,000  Level Atlanta Center
08:40AM 33.5517 -84.4078 165° South 437 503 35,000  Level Atlanta Center
08:41AM 33.4411 -84.3600 160° South 431 496 35,000  Level Atlanta Center
08:42AM 33.3242 -84.3122 161° South 436 502 35,000  Level Atlanta Center
08:43AM 33.2117 -84.2622 160° South 436 502 35,000  Level Atlanta Center
08:44AM 33.0969 -84.2197 163° South 436 502 35,000  Level Atlanta Center
08:45AM 32.9822 -84.1700 160° South 436 502 35,000  Level Atlanta Center
08:46AM 32.8675 -84.1206 160° South 441 507 35,000  Level Atlanta Center
08:47AM 32.7528 -84.0733 161° South 441 507 35,000  Level Atlanta Center
08:48AM 32.6358 -84.0289 162° South 441 507 35,000  Level Atlanta Center
08:49AM 32.5208 -83.9772 159° South 446 513 35,000  Level Atlanta Center
08:50AM 32.4042 -83.9306 161° South 441 507 35,000  Level Atlanta Center
08:51AM 32.2872 -83.8842 161° South 441 507 35,000  Level Atlanta Center
08:53AM 32.0986 -83.8050 160° South 449 517 35,000  Level Jacksonville Center
08:54AM 31.9842 -83.7572 160° South 444 511 35,000 -60 Level Jacksonville Center
08:55AM 31.8717 -83.7097 160° South 444 511 34,900 -60 Descending Jacksonville Center
08:56AM 31.7569 -83.6622 161° South 444 511 34,900  Level Jacksonville Center
08:57AM 31.6406 -83.6150 161° South 444 511 34,900  Level Jacksonville Center
08:58AM 31.5219 -83.5286 148° Southeast 444 511 35,000 -300 Climbing Jacksonville Center
08:59AM 31.4178 -83.4550 149° Southeast 439 505 34,400 -1,740 Descending Jacksonville Center
09:00AM 31.3094 -83.3814 150° Southeast 439 505 31,600 -2,820 Descending Jacksonville Center
09:01AM 31.2014 -83.3056 149° Southeast 445 512 28,800 -2,580 Descending Jacksonville Center
09:02AM 31.0992 -83.2322 148° Southeast 445 512 26,500 -1,920 Descending Jacksonville Center
09:03AM 30.9950 -83.1617 150° Southeast 440 506 25,000 -780 Descending Jacksonville Center
09:04AM 30.8928 -83.0886 148° Southeast 435 501 25,000  Level Jacksonville Center
09:05AM 30.8053 -83.0231 147° Southeast 427 491 25,000 -60 Level Jacksonville Center
09:06AM 30.7050 -82.9553 150° Southeast 422 486 24,900 -60 Descending Jacksonville Center
09:07AM 30.5903 -82.8806 151° Southeast 422 486 24,900  Level Jacksonville Center
09:08AM 30.5025 -82.8131 146° Southeast 422 486 24,900  Level Jacksonville Center
09:09AM 30.4000 -82.7433 150° Southeast 422 486 25,000  Climbing Jacksonville Center
09:10AM 30.2872 -82.6689 150° Southeast 422 486 25,000 -60 Level Jacksonville Center
09:11AM 30.1953 -82.6067 150° Southeast 429 494 24,900 -60 Descending Jacksonville Center
09:12AM 30.0928 -82.5372 150° Southeast 429 494 24,900  Level Jacksonville Center
09:13AM 29.9819 -82.4608 149° Southeast 424 488 25,000  Climbing Jacksonville Center
09:14AM 29.8711 -82.4136 160° South 419 482 24,900 -60 Descending Jacksonville Center
09:15AM 29.7603 -82.3758 164° South 419 482 24,900 -900 Level Jacksonville Center
09:16AM 29.6472 -82.3358 163° South 419 482 23,200 -1,800 Descending Jacksonville Center
09:17AM 29.5406 -82.2981 163° South 419 482 21,300 -1,980 Descending Jacksonville Center
09:18AM 29.4444 -82.2511 157° South 402 463 19,300 -1,800 Descending Jacksonville Center
09:19AM 29.3481 -82.1969 154° Southeast 385 443 17,700 -1,800 Descending Jacksonville Center
09:20AM 29.2581 -82.1453 153° Southeast 374 430 15,700 -1,920 Descending Jacksonville Center
09:21AM 29.1722 -82.0936 152° Southeast 361 415 13,900 -1,500 Descending Jacksonville Center
09:22AM 29.0864 -82.0492 156° South 351 404 12,700 -1,260 Descending Jacksonville Center
09:23AM 29.0131 -82.0044 152° Southeast 332 382 11,400 -900 Descending Jacksonville Center
09:24AM 28.9375 -81.9625 154° Southeast 312 359 11,000 -240 Descending Jacksonville Center
09:25AM 28.8683 -81.9111 147° Southeast 302 348 11,000 -600 Level Jacksonville Center
09:26AM 28.8467 -81.8236 106° East 274 315 9,900 -1,020 Descending Jacksonville Center
09:27AM 28.8292 -81.7361 103° East 269 310 9,000 -480 Descending Jacksonville Center
09:28AM 28.8161 -81.6650 102° East 262 302 9,000  Level Jacksonville Center
09:29AM 28.7967 -81.5942 107° East 247 284 9,000 -300 Level Jacksonville Center
09:30AM 28.7750 -81.5236 109° East 242 278 8,500 -900 Descending Jacksonville Center
09:31AM 28.7500 -81.4333 108° East 237 273 7,100 -1,080 Descending Orlando TRACON
09:32AM 28.7333 -81.3667 106° East 216 249 6,300 -840 Descending Orlando TRACON
09:33AM 28.7000 -81.3333 139° Southeast 170 196 5,500 -1,200 Descending Orlando TRACON
09:34AM 28.6500 -81.3333 180° South 172 198 4,000 -1,260 Descending Orlando TRACON
09:35AM 28.6000 -81.3333 180° South 172 198 3,000 -1,020 Descending Orlando TRACON